createdAt,value
2022-11-26T00:01:52.160Z,8.84
2022-11-26T00:04:13.634Z,8.84
2022-11-26T00:06:37.516Z,8.90
2022-11-26T00:08:59.845Z,8.96
2022-11-26T00:11:21.383Z,9.07
2022-11-26T00:13:42.826Z,9.14
2022-11-26T00:16:04.706Z,9.26
2022-11-26T00:18:29.103Z,9.26
2022-11-26T00:20:54.354Z,9.08
2022-11-26T00:23:20.768Z,9.15
2022-11-26T00:25:49.777Z,9.16
2022-11-26T00:28:30.269Z,9.28
2022-11-26T00:30:52.344Z,9.09
2022-11-26T00:33:13.780Z,9.14
2022-11-26T00:35:35.209Z,9.12
2022-11-26T00:37:58.654Z,9.20
2022-11-26T00:40:24.025Z,9.09
2022-11-26T00:42:45.981Z,9.14
2022-11-26T00:45:16.074Z,9.14
2022-11-26T00:47:37.493Z,9.24
2022-11-26T00:49:58.890Z,9.15
2022-11-26T00:52:34.589Z,8.92
2022-11-26T00:54:56.158Z,9.03
2022-11-26T00:57:17.651Z,8.96
2022-11-26T00:59:39.079Z,9.04
2022-11-26T01:02:00.539Z,8.97
2022-11-26T01:04:22.014Z,8.99
2022-11-26T01:06:45.034Z,9.00
2022-11-26T01:09:13.345Z,8.98
2022-11-26T01:11:34.816Z,9.00
2022-11-26T01:13:56.654Z,8.98
2022-11-26T01:16:23.327Z,8.94
2022-11-26T01:18:45.188Z,8.96
2022-11-26T01:21:11.603Z,8.85
2022-11-26T01:23:33.052Z,8.91
2022-11-26T01:25:54.948Z,8.95
2022-11-26T01:28:18.734Z,8.91
2022-11-26T01:30:41.124Z,8.98
2022-11-26T01:33:02.625Z,8.97
2022-11-26T01:35:24.065Z,9.00
2022-11-26T01:37:45.775Z,8.97
2022-11-26T01:40:22.374Z,8.87
2022-11-26T01:42:50.064Z,8.82
2022-11-26T01:45:17.770Z,8.86
2022-11-26T01:47:39.225Z,8.69
2022-11-26T01:50:31.496Z,8.59
2022-11-26T01:52:53.763Z,8.68
2022-11-26T01:55:17.557Z,8.67
2022-11-26T01:57:39.274Z,8.79
2022-11-26T02:00:02.028Z,8.80
2022-11-26T02:02:26.606Z,8.66
2022-11-26T02:04:56.190Z,8.81
2022-11-26T02:07:17.687Z,8.59
2022-11-26T02:09:39.756Z,8.66
2022-11-26T02:12:01.492Z,8.75
2022-11-26T02:14:26.714Z,8.77
2022-11-26T02:17:03.359Z,8.85
2022-11-26T02:20:02.750Z,8.82
2022-11-26T02:22:33.333Z,8.65
2022-11-26T02:25:22.863Z,8.75
2022-11-26T02:28:07.003Z,8.64
2022-11-26T02:30:32.065Z,8.67
2022-11-26T02:33:09.047Z,8.75
2022-11-26T02:35:41.593Z,8.86
2022-11-26T02:38:07.362Z,8.63
2022-11-26T02:40:29.088Z,8.61
2022-11-26T02:42:50.589Z,8.61
2022-11-26T02:45:19.484Z,8.58
2022-11-26T02:47:44.725Z,8.58
2022-11-26T02:50:11.891Z,8.45
2022-11-26T02:52:35.258Z,8.59
2022-11-26T02:54:57.329Z,8.60
2022-11-26T02:57:22.052Z,8.41
2022-11-26T02:59:44.553Z,8.31
2022-11-26T03:02:20.397Z,8.49
2022-11-26T03:04:46.479Z,8.66
2022-11-26T03:07:09.938Z,8.80
2022-11-26T03:09:51.883Z,8.66
2022-11-26T03:12:13.384Z,8.77
2022-11-26T03:14:35.058Z,8.83
2022-11-26T03:16:56.651Z,8.88
2022-11-26T03:19:18.141Z,8.91
2022-11-26T03:21:39.549Z,9.02
2022-11-26T03:24:01.109Z,9.10
2022-11-26T03:26:22.669Z,9.14
2022-11-26T03:28:44.132Z,9.19
2022-11-26T03:31:05.722Z,8.96
2022-11-26T03:33:27.201Z,8.73
2022-11-26T03:35:49.702Z,8.53
2022-11-26T03:38:11.316Z,8.70
2022-11-26T03:40:32.822Z,8.70
2022-11-26T03:42:54.286Z,8.42
2022-11-26T03:45:15.864Z,8.13
2022-11-26T03:47:37.827Z,8.33
2022-11-26T03:49:59.313Z,8.23
2022-11-26T03:52:20.886Z,8.25
2022-11-26T03:54:42.383Z,8.36
2022-11-26T03:57:03.891Z,8.22
2022-11-26T03:59:25.386Z,8.26
2022-11-26T04:01:46.975Z,8.30
2022-11-26T04:04:08.581Z,8.35
2022-11-26T04:06:30.034Z,8.42
2022-11-26T04:08:52.350Z,8.27
2022-11-26T04:11:14.424Z,8.50
2022-11-26T04:13:35.929Z,8.63
2022-11-26T04:15:57.354Z,8.41
2022-11-26T04:18:18.872Z,8.25
2022-11-26T04:20:40.352Z,8.24
2022-11-26T04:23:01.810Z,8.44
2022-11-26T04:25:24.150Z,8.50
2022-11-26T04:27:45.610Z,8.44
2022-11-26T04:30:08.341Z,8.56
2022-11-26T04:32:29.819Z,8.62
2022-11-26T04:34:51.333Z,8.51
2022-11-26T04:37:12.941Z,8.53
2022-11-26T04:39:34.418Z,8.75
2022-11-26T04:41:55.851Z,8.71
2022-11-26T04:44:17.307Z,8.64
2022-11-26T04:46:38.813Z,8.63
2022-11-26T04:49:00.297Z,8.75
2022-11-26T04:51:21.814Z,8.61
2022-11-26T04:53:43.298Z,8.59
2022-11-26T04:56:04.916Z,8.62
2022-11-26T04:58:26.361Z,8.45
2022-11-26T05:00:50.931Z,8.62
2022-11-26T05:03:13.291Z,8.78
2022-11-26T05:05:34.878Z,8.87
2022-11-26T05:07:56.517Z,8.91
2022-11-26T05:10:18.273Z,8.98
2022-11-26T05:12:39.768Z,9.01
2022-11-26T05:15:01.252Z,8.89
2022-11-26T05:17:22.787Z,8.80
2022-11-26T05:19:44.350Z,8.78
2022-11-26T05:22:05.777Z,8.81
2022-11-26T05:24:27.463Z,8.91
2022-11-26T05:26:53.685Z,8.90
2022-11-26T05:29:18.043Z,8.89
2022-11-26T05:31:39.507Z,8.82
2022-11-26T05:34:01.047Z,8.79
2022-11-26T05:36:22.719Z,8.62
2022-11-26T05:38:44.195Z,8.71
2022-11-26T05:41:05.687Z,8.79
2022-11-26T05:43:27.146Z,8.80
2022-11-26T05:45:48.740Z,8.69
2022-11-26T05:48:10.302Z,8.52
2022-11-26T05:50:32.674Z,8.60
2022-11-26T05:52:54.129Z,8.53
2022-11-26T05:55:16.921Z,8.41
2022-11-26T05:57:38.756Z,8.31
2022-11-26T06:00:00.213Z,8.37
2022-11-26T06:02:21.828Z,8.15
2022-11-26T06:04:43.436Z,8.08
2022-11-26T06:07:04.868Z,8.08
2022-11-26T06:09:26.369Z,8.08
2022-11-26T06:11:50.392Z,7.99
2022-11-26T06:14:11.859Z,8.05
2022-11-26T06:16:33.368Z,8.01
2022-11-26T06:18:54.885Z,8.18
2022-11-26T06:21:16.469Z,8.08
2022-11-26T06:23:37.898Z,8.06
2022-11-26T06:25:59.526Z,7.92
2022-11-26T06:28:20.988Z,7.85
2022-11-26T06:30:44.745Z,7.81
2022-11-26T06:33:06.226Z,7.58
2022-11-26T06:35:27.717Z,7.55
2022-11-26T06:37:49.231Z,7.65
2022-11-26T06:40:16.801Z,7.61
2022-11-26T06:42:38.222Z,7.58
2022-11-26T06:45:00.232Z,7.09
2022-11-26T06:47:21.824Z,7.19
2022-11-26T06:49:43.345Z,7.12
2022-11-26T06:52:05.024Z,7.00
2022-11-26T06:54:26.519Z,6.97
2022-11-26T06:56:48.151Z,7.02
2022-11-26T06:59:09.843Z,6.85
2022-11-26T07:01:31.702Z,6.89
2022-11-26T07:03:54.225Z,6.87
2022-11-26T07:06:21.278Z,6.72
2022-11-26T07:08:42.769Z,6.80
2022-11-26T07:11:04.369Z,6.71
2022-11-26T07:13:25.828Z,6.58
2022-11-26T07:15:47.333Z,6.59
2022-11-26T07:18:08.837Z,6.61
2022-11-26T07:20:30.310Z,6.62
2022-11-26T07:22:53.151Z,6.60
2022-11-26T07:25:14.690Z,6.46
2022-11-26T07:27:36.135Z,6.35
2022-11-26T07:29:57.656Z,6.25
2022-11-26T07:32:20.336Z,6.31
2022-11-26T07:34:41.874Z,6.38
2022-11-26T07:37:03.419Z,6.59
2022-11-26T07:39:24.969Z,6.71
2022-11-26T07:41:46.416Z,6.62
2022-11-26T07:44:12.248Z,6.23
2022-11-26T07:46:33.794Z,6.34
2022-11-26T07:48:56.298Z,6.36
2022-11-26T07:51:29.822Z,6.32
2022-11-26T07:53:52.498Z,5.93
2022-11-26T07:56:14.100Z,6.16
2022-11-26T07:58:35.613Z,6.14
2022-11-26T08:00:57.043Z,6.29
2022-11-26T08:03:18.504Z,6.33
2022-11-26T08:05:43.936Z,6.37
2022-11-26T08:08:05.787Z,6.31
2022-11-26T08:10:27.303Z,6.31
2022-11-26T08:12:48.796Z,6.34
2022-11-26T08:15:10.748Z,6.26
2022-11-26T08:17:32.167Z,5.81
2022-11-26T08:19:53.743Z,5.91
2022-11-26T08:22:15.178Z,6.12
2022-11-26T08:24:36.848Z,6.21
2022-11-26T08:26:59.421Z,6.31
2022-11-26T08:29:20.886Z,6.41
2022-11-26T08:31:46.518Z,6.44
2022-11-26T08:34:08.342Z,6.30
2022-11-26T08:36:31.342Z,6.39
2022-11-26T08:38:52.867Z,6.55
2022-11-26T08:41:14.474Z,6.73
2022-11-26T08:44:04.575Z,6.73
2022-11-26T08:46:18.361Z,6.68
2022-11-26T08:48:40.170Z,6.85
2022-11-26T08:51:04.451Z,7.04
2022-11-26T08:53:27.148Z,7.31
2022-11-26T08:56:00.211Z,7.54
2022-11-26T08:58:22.128Z,7.47
2022-11-26T09:00:44.273Z,7.42
2022-11-26T09:03:05.861Z,7.31
2022-11-26T09:05:27.418Z,7.22
2022-11-26T09:07:49.298Z,7.32
2022-11-26T09:10:11.228Z,7.42
2022-11-26T09:12:32.658Z,7.53
2022-11-26T09:14:54.209Z,7.52
2022-11-26T09:17:15.810Z,7.67
2022-11-26T09:19:37.337Z,7.80
2022-11-26T09:21:59.787Z,7.69
2022-11-26T09:24:21.629Z,7.92
2022-11-26T09:26:43.957Z,7.87
2022-11-26T09:29:05.655Z,7.95
2022-11-26T09:31:27.663Z,8.07
2022-11-26T09:33:49.208Z,8.23
2022-11-26T09:36:13.011Z,8.08
2022-11-26T09:38:35.551Z,8.02
2022-11-26T09:41:05.663Z,8.01
2022-11-26T09:43:36.084Z,8.02
2022-11-26T09:46:00.829Z,8.09
2022-11-26T09:48:25.025Z,8.05
2022-11-26T09:50:49.803Z,8.12
2022-11-26T09:53:43.108Z,8.31
2022-11-26T09:56:10.057Z,8.28
2022-11-26T09:58:40.113Z,8.44
2022-11-26T10:01:05.368Z,8.31
2022-11-26T10:03:35.759Z,8.31
2022-11-26T10:06:34.306Z,8.26
2022-11-26T10:09:11.230Z,8.21
2022-11-26T10:11:49.113Z,8.31
2022-11-26T10:14:48.121Z,8.41
2022-11-26T10:17:18.828Z,8.46
2022-11-26T10:20:02.628Z,8.83
2022-11-26T10:23:11.038Z,8.79
2022-11-26T10:25:45.246Z,8.78
2022-11-26T10:28:21.620Z,9.33
2022-11-26T10:30:43.991Z,9.64
2022-11-26T10:33:07.256Z,9.87
2022-11-26T10:35:29.924Z,10.02
2022-11-26T10:37:52.256Z,10.20
2022-11-26T10:40:28.615Z,10.24
2022-11-26T10:43:12.601Z,10.23
2022-11-26T10:45:55.645Z,10.56
2022-11-26T10:48:33.459Z,10.23
2022-11-26T10:51:11.029Z,10.02
2022-11-26T10:53:52.464Z,10.04
2022-11-26T10:56:19.629Z,9.90
2022-11-26T10:58:43.573Z,9.80
2022-11-26T11:01:06.969Z,9.65
2022-11-26T11:04:06.845Z,9.50
2022-11-26T11:06:19.312Z,9.42
2022-11-26T11:08:40.813Z,9.62
2022-11-26T11:11:04.211Z,9.72
2022-11-26T11:13:43.277Z,9.63
2022-11-26T11:16:04.897Z,9.55
2022-11-26T11:18:26.837Z,9.23
2022-11-26T11:20:57.755Z,9.24
2022-11-26T11:23:21.018Z,9.14
2022-11-26T11:25:47.324Z,9.21
2022-11-26T11:28:21.474Z,9.30
2022-11-26T11:30:44.295Z,9.41
2022-11-26T11:33:20.220Z,9.60
2022-11-26T11:35:41.678Z,9.52
2022-11-26T11:38:03.539Z,9.43
2022-11-26T11:40:29.060Z,9.14
2022-11-26T11:42:56.491Z,8.74
2022-11-26T11:45:42.086Z,8.24
2022-11-26T11:48:12.635Z,8.24
2022-11-26T11:50:38.821Z,8.11
2022-11-26T11:53:18.475Z,8.09
2022-11-26T11:56:02.811Z,8.00
2022-11-26T11:58:38.194Z,7.96
2022-11-26T12:01:18.731Z,7.96
2022-11-26T12:03:43.113Z,7.99
2022-11-26T12:06:43.002Z,8.03
2022-11-26T12:09:29.425Z,7.95
2022-11-26T12:11:58.691Z,7.86
2022-11-26T12:14:32.346Z,7.93
2022-11-26T12:17:00.229Z,7.86
2022-11-26T12:19:54.709Z,7.89
2022-11-26T12:22:22.554Z,7.75
2022-11-26T12:24:52.895Z,7.83
2022-11-26T12:27:36.158Z,7.73
2022-11-26T12:30:03.258Z,7.88
2022-11-26T12:32:51.044Z,7.89
2022-11-26T12:35:20.754Z,7.94
2022-11-26T12:37:43.246Z,8.01
2022-11-26T12:40:08.500Z,8.10
2022-11-26T12:42:51.751Z,8.17
2022-11-26T12:45:33.007Z,8.37
2022-11-26T12:48:00.527Z,8.25
2022-11-26T12:50:38.254Z,8.39
2022-11-26T12:53:33.313Z,8.23
2022-11-26T12:56:03.937Z,8.34
2022-11-26T12:58:43.923Z,8.64
2022-11-26T13:01:05.552Z,8.65
2022-11-26T13:03:33.346Z,8.63
2022-11-26T13:06:29.206Z,8.65
2022-11-26T13:09:03.225Z,8.70
2022-11-26T13:11:50.258Z,8.85
2022-11-26T13:14:32.822Z,9.04
2022-11-26T13:17:02.050Z,8.99
2022-11-26T13:19:38.521Z,9.14
2022-11-26T13:22:22.015Z,9.14
2022-11-26T13:25:31.061Z,9.22
2022-11-26T13:27:59.508Z,9.34
2022-11-26T13:30:26.355Z,9.42
2022-11-26T13:33:12.595Z,9.44
2022-11-26T13:35:57.217Z,9.46
2022-11-26T13:38:41.723Z,9.14
2022-11-26T13:41:27.743Z,9.00
2022-11-26T13:43:55.384Z,8.83
2022-11-26T13:46:22.490Z,8.75
2022-11-26T13:49:06.426Z,8.71
2022-11-26T13:51:42.979Z,8.73
2022-11-26T13:54:11.328Z,8.79
2022-11-26T13:56:36.224Z,8.85
2022-11-26T13:59:08.587Z,8.98
2022-11-26T14:01:40.319Z,8.99
2022-11-26T14:04:03.607Z,8.94
2022-11-26T14:06:25.480Z,9.03
2022-11-26T14:08:52.655Z,8.98
2022-11-26T14:11:54.370Z,9.04
2022-11-26T14:14:25.189Z,8.80
2022-11-26T14:17:14.329Z,8.87
2022-11-26T14:19:41.583Z,9.11
2022-11-26T14:22:03.798Z,9.27
2022-11-26T14:24:48.359Z,9.51
2022-11-26T14:27:09.812Z,9.49
2022-11-26T14:29:31.405Z,9.51
2022-11-26T14:31:54.646Z,9.65
2022-11-26T14:34:38.771Z,9.76
2022-11-26T14:37:02.366Z,9.74
2022-11-26T14:39:25.091Z,9.78
2022-11-26T14:41:46.477Z,9.83
2022-11-26T14:44:13.205Z,9.92
2022-11-26T14:46:35.112Z,9.92
2022-11-26T14:48:59.880Z,9.96
2022-11-26T14:51:24.589Z,9.82
2022-11-26T14:53:48.743Z,9.68
2022-11-26T14:56:10.697Z,9.82
2022-11-26T14:58:56.351Z,9.80
2022-11-26T15:01:23.679Z,9.89
2022-11-26T15:04:39.283Z,9.56
2022-11-26T15:07:00.895Z,9.71
2022-11-26T15:09:25.617Z,9.75
2022-11-26T15:12:12.084Z,9.81
2022-11-26T15:14:42.052Z,9.85
2022-11-26T15:17:05.783Z,9.87
2022-11-26T15:19:31.790Z,10.04
2022-11-26T15:21:53.622Z,9.98
2022-11-26T15:24:15.996Z,10.03
2022-11-26T15:26:38.304Z,10.01
2022-11-26T15:28:59.883Z,9.96
2022-11-26T15:31:21.377Z,9.87
2022-11-26T15:33:44.051Z,9.87
2022-11-26T15:36:07.105Z,9.84
2022-11-26T15:38:31.407Z,9.81
2022-11-26T15:41:15.547Z,9.81
2022-11-26T15:43:45.167Z,9.77
2022-11-26T15:46:20.208Z,9.75
2022-11-26T15:48:52.110Z,9.62
2022-11-26T15:51:24.043Z,9.61
2022-11-26T15:53:48.431Z,9.53
2022-11-26T15:56:16.335Z,9.51
2022-11-26T15:58:40.920Z,9.37
2022-11-26T16:01:04.994Z,9.16
2022-11-26T16:03:34.878Z,9.19
2022-11-26T16:05:56.540Z,9.16
2022-11-26T16:08:27.483Z,8.99
2022-11-26T16:10:56.963Z,8.97
2022-11-26T16:13:20.525Z,8.90
2022-11-26T16:16:05.301Z,8.85
2022-11-26T16:18:36.853Z,8.67
2022-11-26T16:21:15.889Z,8.53
2022-11-26T16:23:37.443Z,8.59
2022-11-26T16:26:19.306Z,8.66
2022-11-26T16:28:41.021Z,8.36
2022-11-26T16:31:02.759Z,8.45
2022-11-26T16:33:27.544Z,8.45
2022-11-26T16:35:49.500Z,8.49
2022-11-26T16:38:22.753Z,8.53
2022-11-26T16:40:44.550Z,8.35
2022-11-26T16:43:06.501Z,8.40
2022-11-26T16:45:28.025Z,8.46
2022-11-26T16:47:52.325Z,8.44
2022-11-26T16:50:39.913Z,8.39
2022-11-26T16:53:01.359Z,8.35
2022-11-26T16:55:26.045Z,8.28
2022-11-26T16:57:51.215Z,8.34
2022-11-26T17:00:21.455Z,8.22
2022-11-26T17:02:43.020Z,8.35
2022-11-26T17:05:04.940Z,8.39
2022-11-26T17:07:37.902Z,8.44
2022-11-26T17:09:59.466Z,8.47
2022-11-26T17:12:23.270Z,8.39
2022-11-26T17:14:46.612Z,8.39
2022-11-26T17:17:12.565Z,8.33
2022-11-26T17:19:34.059Z,8.30
2022-11-26T17:21:55.488Z,8.34
2022-11-26T17:24:20.765Z,8.34
2022-11-26T17:26:44.529Z,8.34
2022-11-26T17:29:05.966Z,8.34
2022-11-26T17:31:27.638Z,8.35
2022-11-26T17:33:50.638Z,8.32
2022-11-26T17:36:20.548Z,8.25
2022-11-26T17:38:42.180Z,8.08
2022-11-26T17:41:03.605Z,8.08
2022-11-26T17:43:25.051Z,8.04
2022-11-26T17:45:46.547Z,8.06
2022-11-26T17:48:12.270Z,8.05
2022-11-26T17:50:36.133Z,8.04
2022-11-26T17:52:57.886Z,8.01
2022-11-26T17:55:20.094Z,7.98
2022-11-26T17:57:41.651Z,7.82
2022-11-26T18:00:04.861Z,7.86
2022-11-26T18:02:26.313Z,7.79
2022-11-26T18:04:47.813Z,7.79
2022-11-26T18:07:12.475Z,7.75
2022-11-26T18:09:34.847Z,7.70
2022-11-26T18:11:56.881Z,7.62
2022-11-26T18:14:19.002Z,7.60
2022-11-26T18:16:40.613Z,7.61
2022-11-26T18:19:02.115Z,7.57
2022-11-26T18:21:23.553Z,7.51
2022-11-26T18:23:48.087Z,7.53
2022-11-26T18:26:18.902Z,7.49
2022-11-26T18:28:40.331Z,7.45
2022-11-26T18:31:01.842Z,7.43
2022-11-26T18:33:23.319Z,7.40
2022-11-26T18:35:44.801Z,7.39
2022-11-26T18:38:09.521Z,7.26
2022-11-26T18:40:30.951Z,7.36
2022-11-26T18:42:52.762Z,7.34
2022-11-26T18:45:15.762Z,7.32
2022-11-26T18:47:37.727Z,7.21
2022-11-26T18:49:59.305Z,7.20
2022-11-26T18:52:20.800Z,7.09
2022-11-26T18:54:42.358Z,7.04
2022-11-26T18:57:03.811Z,7.06
2022-11-26T18:59:26.469Z,6.93
2022-11-26T19:01:48.036Z,6.90
2022-11-26T19:04:10.562Z,6.82
2022-11-26T19:06:33.513Z,6.83
2022-11-26T19:09:00.831Z,6.78
2022-11-26T19:11:24.553Z,6.77
2022-11-26T19:13:46.941Z,6.75
2022-11-26T19:16:16.096Z,6.72
2022-11-26T19:18:38.161Z,6.70
2022-11-26T19:20:59.629Z,6.69
2022-11-26T19:23:24.392Z,6.66
2022-11-26T19:25:45.848Z,6.61
2022-11-26T19:28:07.295Z,6.53
2022-11-26T19:30:28.845Z,6.44
2022-11-26T19:32:50.325Z,6.48
2022-11-26T19:35:13.872Z,6.48
2022-11-26T19:37:35.468Z,6.38
2022-11-26T19:39:56.900Z,6.34
2022-11-26T19:42:18.427Z,6.33
2022-11-26T19:44:48.065Z,6.22
2022-11-26T19:47:09.508Z,6.24
2022-11-26T19:49:30.988Z,6.28
2022-11-26T19:51:53.154Z,6.22
2022-11-26T19:54:14.684Z,6.27
2022-11-26T19:56:36.765Z,6.21
2022-11-26T19:58:59.084Z,6.24
2022-11-26T20:01:21.982Z,6.14
2022-11-26T20:03:44.414Z,5.95
2022-11-26T20:06:11.146Z,6.03
2022-11-26T20:08:33.988Z,6.00
2022-11-26T20:11:01.558Z,6.00
2022-11-26T20:13:23.140Z,6.05
2022-11-26T20:15:48.841Z,6.05
2022-11-26T20:18:10.331Z,6.09
2022-11-26T20:20:31.762Z,6.05
2022-11-26T20:22:53.218Z,5.65
2022-11-26T20:25:15.598Z,5.73
2022-11-26T20:27:37.023Z,5.83
2022-11-26T20:29:58.542Z,5.86
2022-11-26T20:32:21.950Z,5.89
2022-11-26T20:34:44.653Z,5.76
2022-11-26T20:37:06.071Z,5.78
2022-11-26T20:39:28.669Z,5.66
2022-11-26T20:41:50.634Z,5.75
2022-11-26T20:44:13.043Z,5.79
2022-11-26T20:46:34.612Z,5.76
2022-11-26T20:48:56.586Z,5.64
2022-11-26T20:51:19.390Z,5.48
2022-11-26T20:53:42.720Z,5.38
2022-11-26T20:56:05.486Z,5.35
2022-11-26T20:58:27.953Z,5.41
2022-11-26T21:00:49.572Z,5.43
2022-11-26T21:03:11.029Z,5.40
2022-11-26T21:05:33.609Z,5.38
2022-11-26T21:07:55.116Z,5.38
2022-11-26T21:10:16.675Z,5.35
2022-11-26T21:12:38.549Z,5.31
2022-11-26T21:15:01.308Z,5.27
2022-11-26T21:17:22.896Z,5.23
2022-11-26T21:19:44.472Z,5.05
2022-11-26T21:22:05.886Z,5.06
2022-11-26T21:24:27.398Z,5.03
2022-11-26T21:26:48.833Z,5.07
2022-11-26T21:29:10.273Z,5.04
2022-11-26T21:31:32.411Z,5.05
2022-11-26T21:33:56.313Z,5.08
2022-11-26T21:36:17.722Z,4.73
2022-11-26T21:38:40.758Z,4.60
2022-11-26T21:41:06.957Z,4.72
2022-11-26T21:43:28.383Z,4.71
2022-11-26T21:45:49.833Z,4.71
2022-11-26T21:48:11.332Z,4.52
2022-11-26T21:50:32.763Z,4.53
2022-11-26T21:52:54.247Z,4.53
2022-11-26T21:55:15.900Z,4.42
2022-11-26T21:57:37.313Z,4.44
2022-11-26T21:59:58.820Z,4.36
2022-11-26T22:02:20.333Z,4.10
2022-11-26T22:04:41.881Z,4.21
2022-11-26T22:07:03.851Z,4.26
2022-11-26T22:09:25.345Z,4.21
2022-11-26T22:11:46.874Z,4.20
2022-11-26T22:14:10.100Z,4.26
2022-11-26T22:16:31.727Z,4.26
2022-11-26T22:18:54.118Z,4.25
2022-11-26T22:21:25.070Z,4.20
2022-11-26T22:23:46.717Z,4.14
2022-11-26T22:26:08.672Z,4.20
2022-11-26T22:28:30.487Z,4.33
2022-11-26T22:30:52.080Z,4.19
2022-11-26T22:33:13.570Z,3.97
2022-11-26T22:35:35.926Z,3.93
2022-11-26T22:37:57.414Z,4.00
2022-11-26T22:40:18.906Z,4.03
2022-11-26T22:42:40.893Z,4.02
2022-11-26T22:45:02.998Z,4.08
2022-11-26T22:47:24.430Z,4.03
2022-11-26T22:49:45.906Z,3.87
2022-11-26T22:52:07.321Z,3.91
2022-11-26T22:54:28.763Z,3.94
2022-11-26T22:56:50.224Z,3.74
2022-11-26T22:59:13.578Z,3.71
2022-11-26T23:01:36.546Z,3.74
2022-11-26T23:03:59.483Z,3.74
2022-11-26T23:06:23.330Z,3.77
2022-11-26T23:08:45.725Z,3.67
2022-11-26T23:11:09.139Z,3.73
2022-11-26T23:13:30.594Z,3.86
2022-11-26T23:15:52.077Z,3.94
2022-11-26T23:18:15.655Z,3.96
2022-11-26T23:20:37.348Z,3.98
2022-11-26T23:22:58.801Z,4.03
2022-11-26T23:25:20.285Z,4.01
2022-11-26T23:27:41.761Z,4.08
2022-11-26T23:30:04.701Z,4.09
2022-11-26T23:32:32.133Z,4.17
2022-11-26T23:34:54.309Z,4.18
2022-11-26T23:37:15.758Z,4.18
2022-11-26T23:39:37.242Z,4.19
2022-11-26T23:41:58.740Z,4.23
2022-11-26T23:44:20.306Z,4.27
2022-11-26T23:46:41.797Z,4.20
2022-11-26T23:49:04.125Z,4.10
2022-11-26T23:51:28.411Z,4.18
2022-11-26T23:53:51.172Z,4.07
2022-11-26T23:56:15.931Z,3.94
2022-11-26T23:58:37.722Z,3.71
